CheckWX is a tool to help pilots better visualize weather data.  It is not intended as a substitute for an official pre-flight weather briefing.

14:02:25 UTC

LFLX METAR
Châteauroux-Déols "Marcel Dassault" Airport
Châteauroux/Déols, France
Current

32 mins ago

LFLX 071330Z AUTO 33006KT 250V050 CAVOK 25/07 Q1020 NOSIG
Observed
Jul-7 @ 13:30 UTC
Wind
  • 330° at 6 KTS
Visibility
10,000+ meters
Flight Rules
VFR
Cloud Levels
  • Clear skies
Temperature
25°C / 77°F
Dewpoint
C / 45°F
Humidity
32%
Altimeter
30.12" Hg
Pressure
1019.92 hPa
Previous

1 hour ago

LFLX 071300Z AUTO VRB05KT CAVOK 24/06 Q1021 NOSIG
Observed
Jul-7 @ 13:00 UTC
Wind
  • Variable at 5 KTS
Visibility
10,000+ meters
Flight Rules
VFR
Cloud Levels
  • Clear skies
Temperature
24°C / 75°F
Dewpoint
C / 43°F
Humidity
31%
Altimeter
30.15" Hg
Pressure
1020.92 hPa
Previous

2 hours ago

LFLX 071230Z AUTO 31007KT 250V050 CAVOK 24/07 Q1021 NOSIG
Observed
Jul-7 @ 12:30 UTC
Wind
  • 310° at 7 KTS
Visibility
10,000+ meters
Flight Rules
VFR
Cloud Levels
  • Clear skies
Temperature
24°C / 75°F
Dewpoint
C / 45°F
Humidity
34%
Altimeter
30.15" Hg
Pressure
1020.92 hPa